createdAt,value
2018-08-04T02:47:08.857Z,15.30
2018-08-04T02:49:40.136Z,16.05
2018-08-04T02:52:11.026Z,17.00
2018-08-04T02:54:42.030Z,16.45
2018-08-04T02:57:13.090Z,15.15
2018-08-04T02:59:43.584Z,15.40
2018-08-04T03:02:14.349Z,18.10
2018-08-04T03:04:45.113Z,17.17
2018-08-04T03:07:16.176Z,16.73
2018-08-04T03:09:46.866Z,17.12
2018-08-04T03:12:17.804Z,17.70
2018-08-04T03:14:48.949Z,17.23
2018-08-04T03:17:19.929Z,18.60
2018-08-04T03:19:51.207Z,15.32
2018-08-04T03:22:22.192Z,16.40
2018-08-04T03:24:53.138Z,16.15
2018-08-04T03:27:23.888Z,16.60
2018-08-04T03:29:54.771Z,17.35
2018-08-04T03:32:25.511Z,17.37
2018-08-04T03:34:57.339Z,15.83
2018-08-04T03:37:28.062Z,16.97
2018-08-04T03:39:58.837Z,17.07
2018-08-04T03:42:29.518Z,16.45
2018-08-04T03:45:01.267Z,15.60
2018-08-04T03:47:32.161Z,16.00
2018-08-04T03:50:03.130Z,16.32
2018-08-04T03:52:33.828Z,21.65
2018-08-04T03:55:04.500Z,16.20
2018-08-04T03:57:35.150Z,16.45
2018-08-04T04:00:07.561Z,16.52
2018-08-04T04:02:38.394Z,15.65
2018-08-04T04:05:09.241Z,18.62
2018-08-04T04:07:39.950Z,16.45
2018-08-04T04:10:10.941Z,19.25
2018-08-04T04:12:41.942Z,16.73
2018-08-04T04:15:14.663Z,18.67
2018-08-04T04:17:47.663Z,18.23
2018-08-04T04:20:20.548Z,18.40
2018-08-04T04:22:51.505Z,19.85
2018-08-04T04:25:22.471Z,16.45
2018-08-04T04:27:53.071Z,15.88
2018-08-04T04:30:23.929Z,18.27
2018-08-04T04:32:55.344Z,15.68
2018-08-04T04:35:26.061Z,15.80
2018-08-04T04:37:56.905Z,15.13
2018-08-04T04:40:27.562Z,16.23
2018-08-04T04:42:59.988Z,16.70
2018-08-04T04:45:30.710Z,17.30
2018-08-04T04:48:01.289Z,15.93
2018-08-04T04:50:32.077Z,16.20
2018-08-04T04:53:02.822Z,19.23
2018-08-04T04:55:33.596Z,16.37
2018-08-04T04:58:04.374Z,17.10
2018-08-04T05:00:35.216Z,17.35
2018-08-04T05:03:06.593Z,16.48
2018-08-04T05:05:37.469Z,15.35
2018-08-04T05:08:08.455Z,16.75
2018-08-04T05:10:39.202Z,17.70
2018-08-04T05:13:10.981Z,15.48
2018-08-04T05:15:42.203Z,19.62
2018-08-04T05:18:15.483Z,18.35
2018-08-04T05:20:47.160Z,15.13
2018-08-04T05:23:18.776Z,16.67
2018-08-04T05:25:49.441Z,16.62
2018-08-04T05:28:21.113Z,19.42
2018-08-04T05:31:04.496Z,16.48
2018-08-04T05:33:35.627Z,18.95
2018-08-04T05:36:07.744Z,21.17
2018-08-04T05:38:38.808Z,19.00
2018-08-04T05:41:11.549Z,20.80
2018-08-04T05:43:48.719Z,19.80
2018-08-04T05:46:24.165Z,21.07
2018-08-04T05:48:56.585Z,20.13
2018-08-04T05:51:27.664Z,20.03
2018-08-04T05:53:58.602Z,18.90
2018-08-04T05:56:29.846Z,19.20
2018-08-04T05:59:00.769Z,20.20
2018-08-04T06:01:31.590Z,20.23
2018-08-04T06:04:03.311Z,20.03
2018-08-04T06:06:34.138Z,23.90
2018-08-04T06:09:07.702Z,18.67
2018-08-04T06:11:38.716Z,19.00
2018-08-04T06:14:10.112Z,19.03
2018-08-04T06:16:41.346Z,18.00
2018-08-04T06:19:16.945Z,19.67
2018-08-04T06:21:48.210Z,22.43
2018-08-04T06:24:19.463Z,18.23
2018-08-04T06:26:51.927Z,18.50
2018-08-04T06:29:22.810Z,18.67
2018-08-04T06:31:54.580Z,23.40
2018-08-04T06:34:26.088Z,20.27
2018-08-04T06:36:56.816Z,19.73
2018-08-04T06:39:27.668Z,18.23
2018-08-04T06:41:59.230Z,20.17
2018-08-04T06:44:30.239Z,21.23
2018-08-04T06:50:00.338Z,19.33
2018-08-04T06:52:32.758Z,22.23
2018-08-04T06:55:04.112Z,20.57
2018-08-04T06:57:35.443Z,19.30
2018-08-04T07:00:07.815Z,19.47
2018-08-04T07:02:38.943Z,19.00
2018-08-04T07:05:10.682Z,20.03
2018-08-04T07:07:41.590Z,19.10
2018-08-04T07:10:12.562Z,18.60
2018-08-04T07:12:43.667Z,18.00
2018-08-04T07:15:15.022Z,19.50
2018-08-04T07:17:47.180Z,19.70
2018-08-04T07:20:18.465Z,19.30
2018-08-04T07:22:49.516Z,19.13
2018-08-04T07:28:03.091Z,19.17
2018-08-04T07:30:33.829Z,24.57
2018-08-04T07:33:04.609Z,23.67
2018-08-04T07:35:35.326Z,19.73
2018-08-04T07:38:07.444Z,29.13
2018-08-04T07:40:38.203Z,21.57
2018-08-04T07:43:08.776Z,20.67
2018-08-04T07:45:40.724Z,22.03
2018-08-04T07:48:11.308Z,19.63
2018-08-04T07:50:42.083Z,18.83
2018-08-04T07:53:25.538Z,23.37
2018-08-04T07:55:56.514Z,19.57
2018-08-04T07:58:27.968Z,21.30
2018-08-04T08:01:00.887Z,18.37
2018-08-04T08:03:31.883Z,19.17
2018-08-04T08:06:02.504Z,20.03
2018-08-04T08:08:33.373Z,21.30
2018-08-04T08:11:04.301Z,17.13
2018-08-04T08:13:41.813Z,20.77
2018-08-04T08:16:12.708Z,19.47
2018-08-04T08:18:43.546Z,18.40
2018-08-04T08:21:14.488Z,20.50
2018-08-04T08:23:46.304Z,24.30
2018-08-04T08:26:17.301Z,20.10
2018-08-04T08:28:47.860Z,21.03
2018-08-04T08:31:18.516Z,19.70
2018-08-04T08:33:49.145Z,21.27
2018-08-04T08:36:19.998Z,19.70
2018-08-04T08:38:51.234Z,18.73
2018-08-04T08:41:23.089Z,18.87
2018-08-04T08:43:55.276Z,20.73
2018-08-04T08:46:28.250Z,19.83
2018-08-04T08:48:59.528Z,17.90
2018-08-04T08:51:30.277Z,17.23
2018-08-04T08:54:01.695Z,19.53
2018-08-04T08:56:32.911Z,19.13
2018-08-04T08:59:04.899Z,17.70
2018-08-04T09:01:37.366Z,16.57
2018-08-04T09:04:09.572Z,19.73
2018-08-04T09:06:42.765Z,17.37
2018-08-04T09:09:23.688Z,18.13
2018-08-04T09:11:57.130Z,18.50
2018-08-04T09:14:28.711Z,17.47
2018-08-04T09:17:03.265Z,18.80
2018-08-04T09:19:33.957Z,18.83
2018-08-04T09:22:05.804Z,17.97
2018-08-04T09:24:36.661Z,20.40
2018-08-04T09:27:07.746Z,20.20
2018-08-04T09:29:38.654Z,19.03
2018-08-04T09:32:22.582Z,18.47
2018-08-04T09:34:55.067Z,19.40
2018-08-04T09:37:26.315Z,19.43
2018-08-04T09:39:56.959Z,23.67
2018-08-04T09:42:27.688Z,18.90
2018-08-04T09:44:58.380Z,19.70
2018-08-04T09:47:29.136Z,18.17
2018-08-04T09:50:00.036Z,19.93
2018-08-04T09:52:31.227Z,14.43
2018-08-04T09:55:02.098Z,16.87
2018-08-04T09:57:32.973Z,17.03
2018-08-04T10:00:03.826Z,14.77
2018-08-04T10:02:44.877Z,14.87
2018-08-04T10:05:16.296Z,14.30
2018-08-04T10:07:47.240Z,16.37
2018-08-04T10:10:17.872Z,15.17
2018-08-04T10:12:48.502Z,14.07
2018-08-04T10:15:19.345Z,14.80
2018-08-04T10:17:50.344Z,17.73
2018-08-04T10:20:21.977Z,13.63
2018-08-04T10:22:54.145Z,13.60
2018-08-04T10:25:24.857Z,13.30
2018-08-04T10:27:55.768Z,12.20
2018-08-04T10:30:26.687Z,14.17
2018-08-04T10:32:57.610Z,11.63
2018-08-04T10:35:29.277Z,12.77
2018-08-04T10:38:00.425Z,13.07
2018-08-04T10:40:31.245Z,11.50
2018-08-04T10:43:02.240Z,15.13
2018-08-04T10:45:32.987Z,12.73
2018-08-04T10:48:08.141Z,14.17
2018-08-04T10:50:39.247Z,8.80
2018-08-04T10:53:10.621Z,12.13
2018-08-04T10:55:42.636Z,11.43
2018-08-04T10:58:14.965Z,10.20
2018-08-04T11:00:45.933Z,9.60
2018-08-04T11:03:19.059Z,10.50
2018-08-04T11:05:52.659Z,11.93
2018-08-04T11:08:24.046Z,10.43
2018-08-04T11:11:04.303Z,8.20
2018-08-04T11:13:42.217Z,8.40
2018-08-04T11:16:13.180Z,10.77
2018-08-04T11:18:44.359Z,8.20
2018-08-04T11:21:16.184Z,11.40
2018-08-04T11:23:48.172Z,9.53
2018-08-04T11:26:24.526Z,8.00
2018-08-04T11:28:55.925Z,13.37
2018-08-04T11:31:40.266Z,11.30
2018-08-04T11:34:12.225Z,11.73
2018-08-04T11:36:45.939Z,10.00
2018-08-04T11:39:17.543Z,9.90
2018-08-04T11:41:51.744Z,9.90
2018-08-04T11:44:24.957Z,9.63
2018-08-04T11:47:01.412Z,8.50
2018-08-04T11:52:28.426Z,8.83
2018-08-04T12:01:01.659Z,8.50
2018-08-04T12:03:42.207Z,8.50
2018-08-04T12:06:14.055Z,8.03
2018-08-04T12:08:47.920Z,8.87
2018-08-04T12:11:19.188Z,9.20
2018-08-04T12:13:50.143Z,9.50
2018-08-04T12:16:22.546Z,8.63
2018-08-04T12:18:53.746Z,9.47
2018-08-04T12:21:26.178Z,12.63
2018-08-04T12:23:56.961Z,9.17
2018-08-04T12:26:28.521Z,8.33
2018-08-04T12:29:00.096Z,8.57
2018-08-04T12:31:30.949Z,7.83
2018-08-04T12:34:01.750Z,8.00
2018-08-04T12:36:32.448Z,7.70
2018-08-04T12:39:03.434Z,9.20
2018-08-04T12:41:35.214Z,7.83
2018-08-04T12:44:08.010Z,8.90
2018-08-04T12:46:39.389Z,8.13
2018-08-04T12:49:12.332Z,8.80
2018-08-04T12:51:43.395Z,7.60
2018-08-04T12:54:14.550Z,7.90
2018-08-04T12:56:48.715Z,7.83
2018-08-04T12:59:19.614Z,8.70
2018-08-04T13:01:51.383Z,7.17
2018-08-04T13:04:24.348Z,8.60
2018-08-04T13:06:55.188Z,8.43
2018-08-04T13:09:26.265Z,8.10
2018-08-04T13:11:56.921Z,7.33
2018-08-04T13:14:28.201Z,7.93
2018-08-04T13:16:59.141Z,7.77
2018-08-04T13:19:29.882Z,9.30
2018-08-04T13:22:00.617Z,7.90
2018-08-04T13:24:31.453Z,7.53
2018-08-04T13:27:02.264Z,7.17
2018-08-04T13:29:34.364Z,9.10
2018-08-04T13:32:05.210Z,9.80
2018-08-04T13:34:36.153Z,7.40
2018-08-04T13:37:07.697Z,7.53
2018-08-04T13:39:38.704Z,7.30
2018-08-04T13:42:12.582Z,8.23
2018-08-04T13:44:44.030Z,7.90
2018-08-04T13:47:14.929Z,7.00
2018-08-04T13:49:48.362Z,12.17
2018-08-04T13:52:23.442Z,7.73
2018-08-04T13:54:57.515Z,7.40
2018-08-04T13:57:29.555Z,7.47
2018-08-04T14:00:04.086Z,8.50
2018-08-04T14:02:45.736Z,7.73
2018-08-04T14:05:19.443Z,8.77
2018-08-04T14:07:50.701Z,9.77
2018-08-04T14:10:23.852Z,8.30
2018-08-04T14:12:56.472Z,8.30
2018-08-04T14:15:27.802Z,9.63
2018-08-04T14:18:00.290Z,10.40
2018-08-04T14:20:32.238Z,9.40
2018-08-04T14:23:03.834Z,9.67
2018-08-04T14:25:38.019Z,9.97
2018-08-04T14:28:09.590Z,9.27
2018-08-04T14:33:40.267Z,8.93
2018-08-04T14:36:11.763Z,9.37
2018-08-04T14:38:47.957Z,9.50
2018-08-04T14:41:22.394Z,10.40
2018-08-04T14:43:57.044Z,9.80
2018-08-04T14:46:30.507Z,10.37
2018-08-04T14:49:05.836Z,10.60
2018-08-04T14:51:37.850Z,9.03
2018-08-04T14:54:09.709Z,10.87
2018-08-04T14:56:42.922Z,9.80
2018-08-04T14:59:16.690Z,12.13
2018-08-04T15:01:52.926Z,10.40
2018-08-04T15:04:31.087Z,10.53
2018-08-04T15:07:02.408Z,10.00
2018-08-04T15:09:38.212Z,10.63
2018-08-04T15:12:08.917Z,11.23
2018-08-04T15:14:39.880Z,9.20
2018-08-04T15:17:10.783Z,10.10
2018-08-04T15:19:41.612Z,10.40
2018-08-04T15:22:12.340Z,10.93
2018-08-04T15:24:43.362Z,8.93
2018-08-04T15:27:15.371Z,10.17
2018-08-04T15:29:46.037Z,12.70
2018-08-04T15:32:16.784Z,10.33
2018-08-04T15:34:48.725Z,10.73
2018-08-04T15:37:20.230Z,10.60
2018-08-04T15:39:51.419Z,12.73
2018-08-04T15:42:22.714Z,11.10
2018-08-04T15:44:59.846Z,10.40
2018-08-04T15:47:32.581Z,11.57
2018-08-04T15:50:04.335Z,10.40
2018-08-04T15:52:35.797Z,10.67
2018-08-04T15:55:06.918Z,11.07
2018-08-04T15:57:37.621Z,11.20
2018-08-04T16:00:09.917Z,10.70
2018-08-04T16:02:43.012Z,9.47
2018-08-04T16:05:14.235Z,10.47
2018-08-04T16:07:45.948Z,9.90
2018-08-04T16:10:18.183Z,10.63
2018-08-04T16:12:49.474Z,11.30
2018-08-04T16:15:20.187Z,10.70
2018-08-04T16:17:50.865Z,10.40
2018-08-04T16:20:21.546Z,10.10
2018-08-04T16:22:52.234Z,11.30
2018-08-04T16:25:22.909Z,10.10
2018-08-04T16:27:53.508Z,9.37
2018-08-04T16:30:24.229Z,11.40
2018-08-04T16:32:54.870Z,10.67
2018-08-04T16:35:25.435Z,10.67
2018-08-04T16:37:56.036Z,10.47
2018-08-04T16:40:26.596Z,10.20
2018-08-04T16:42:57.361Z,14.53
2018-08-04T16:45:27.959Z,10.80
2018-08-04T16:47:58.490Z,12.73
2018-08-04T16:50:29.234Z,12.00
2018-08-04T16:52:59.723Z,10.50
2018-08-04T16:55:30.433Z,10.83
2018-08-04T16:58:00.977Z,10.27
2018-08-04T17:00:31.783Z,11.43
2018-08-04T17:03:02.995Z,10.10
2018-08-04T17:05:33.645Z,10.67
2018-08-04T17:08:04.250Z,9.60
2018-08-04T17:10:35.008Z,9.70
2018-08-04T17:13:05.644Z,11.23
2018-08-04T17:15:36.409Z,9.50
2018-08-04T17:18:07.313Z,11.50
2018-08-04T17:20:37.881Z,12.50
2018-08-04T17:23:08.726Z,11.13
2018-08-04T17:25:39.404Z,9.03
2018-08-04T17:28:10.206Z,9.13
2018-08-04T17:30:40.744Z,10.53
2018-08-04T17:33:11.307Z,9.27
2018-08-04T17:35:41.934Z,10.67
2018-08-04T17:38:12.740Z,8.83
2018-08-04T17:40:43.524Z,9.17
2018-08-04T17:43:14.523Z,9.27
2018-08-04T17:45:45.193Z,12.73
2018-08-04T17:48:15.828Z,9.83
2018-08-04T17:50:46.436Z,10.73
2018-08-04T17:53:16.982Z,11.20
2018-08-04T17:55:47.337Z,10.90
2018-08-04T17:58:17.899Z,10.30
2018-08-04T18:00:48.493Z,10.07
2018-08-04T18:03:19.126Z,11.40
2018-08-04T18:05:49.754Z,11.53
2018-08-04T18:08:20.374Z,11.37
2018-08-04T18:10:51.096Z,11.60
2018-08-04T18:13:23.133Z,13.27
2018-08-04T18:15:53.774Z,11.37
2018-08-04T18:18:24.365Z,10.97
2018-08-04T18:20:54.973Z,10.87
2018-08-04T18:23:25.646Z,10.80
2018-08-04T18:25:56.348Z,11.43
2018-08-04T18:28:26.778Z,11.30
2018-08-04T18:30:57.421Z,10.13
2018-08-04T18:33:27.889Z,11.53
2018-08-04T18:35:58.417Z,11.20
2018-08-04T18:38:29.203Z,13.90
2018-08-04T18:40:59.926Z,11.93
2018-08-04T18:43:30.520Z,15.03
2018-08-04T18:46:01.268Z,14.10
2018-08-04T18:48:31.854Z,14.93
2018-08-04T18:51:02.515Z,14.63
2018-08-04T18:53:33.205Z,14.83
2018-08-04T18:56:04.100Z,18.53
2018-08-04T18:58:37.519Z,18.43
2018-08-04T19:01:07.953Z,18.17
2018-08-04T19:03:38.515Z,18.30
2018-08-04T19:06:09.033Z,19.73
2018-08-04T19:08:39.789Z,18.70
2018-08-04T19:11:10.529Z,16.50
2018-08-04T19:13:42.984Z,15.90
2018-08-04T19:16:13.855Z,16.23
2018-08-04T19:18:48.170Z,25.90
2018-08-04T19:21:23.596Z,29.37
2018-08-04T19:23:54.662Z,26.43
2018-08-04T19:26:26.558Z,23.47
2018-08-04T19:28:57.966Z,21.33
2018-08-04T19:31:28.859Z,19.03
2018-08-04T19:33:59.570Z,18.20
2018-08-04T19:36:30.199Z,16.67
2018-08-04T19:39:01.078Z,19.77
2018-08-04T19:41:31.884Z,16.40
2018-08-04T19:44:02.594Z,16.87
2018-08-04T19:46:33.578Z,19.50
2018-08-04T19:49:04.390Z,16.93
2018-08-04T19:51:35.303Z,16.93
2018-08-04T19:54:05.948Z,22.53
2018-08-04T19:56:36.748Z,18.30
2018-08-04T19:59:07.847Z,16.70
2018-08-04T20:01:38.593Z,17.10
2018-08-04T20:04:09.343Z,19.87
2018-08-04T20:06:40.150Z,18.47
2018-08-04T20:09:11.985Z,19.20
2018-08-04T20:11:42.666Z,20.37
2018-08-04T20:14:13.420Z,19.50
2018-08-04T20:16:44.410Z,16.20
2018-08-04T20:19:15.225Z,17.03
2018-08-04T20:21:45.805Z,15.53
2018-08-04T20:24:16.606Z,19.47
2018-08-04T20:26:47.129Z,19.53
2018-08-04T20:29:17.969Z,17.20
2018-08-04T20:31:48.705Z,15.53
2018-08-04T20:34:19.407Z,15.10
2018-08-04T20:36:50.283Z,15.13
2018-08-04T20:39:21.017Z,15.73
2018-08-04T20:41:51.712Z,17.43
2018-08-04T20:44:22.430Z,17.03
2018-08-04T20:46:53.082Z,18.17
2018-08-04T20:49:23.872Z,18.80
2018-08-04T20:51:54.899Z,21.23
2018-08-04T20:54:25.563Z,17.80
2018-08-04T20:56:56.368Z,17.63
2018-08-04T20:59:27.170Z,18.00
2018-08-04T21:02:02.772Z,18.13
2018-08-04T21:04:34.680Z,18.47
2018-08-04T21:07:05.993Z,20.47
2018-08-04T21:09:36.600Z,23.53
2018-08-04T21:12:07.199Z,22.47
2018-08-04T21:14:38.000Z,21.53
2018-08-04T21:17:08.754Z,21.10
2018-08-04T21:19:39.613Z,24.80
2018-08-04T21:22:10.282Z,17.60
2018-08-04T21:24:41.055Z,16.83
2018-08-04T21:27:11.870Z,15.50
2018-08-04T21:29:42.700Z,16.20
2018-08-04T21:32:13.632Z,16.50
2018-08-04T21:34:44.364Z,17.73
2018-08-04T21:37:15.238Z,15.20
2018-08-04T21:39:45.979Z,16.47
2018-08-04T21:42:16.667Z,17.57
2018-08-04T21:44:47.325Z,21.33
2018-08-04T21:47:18.337Z,16.50
2018-08-04T21:49:49.321Z,15.90
2018-08-04T21:52:20.549Z,20.82
2018-08-04T21:54:51.933Z,16.25
2018-08-04T21:57:22.852Z,16.42
2018-08-04T21:59:53.711Z,18.40
2018-08-04T22:02:24.836Z,17.42
2018-08-04T22:04:55.790Z,16.13
2018-08-04T22:07:52.813Z,16.60
2018-08-04T22:10:23.448Z,16.60
2018-08-04T22:12:54.441Z,19.05
2018-08-04T22:15:25.886Z,17.67
2018-08-04T22:17:56.776Z,16.27
2018-08-04T22:20:28.211Z,17.00
2018-08-04T22:22:59.156Z,16.80
2018-08-04T22:25:30.900Z,17.77
2018-08-04T22:28:01.650Z,18.12
2018-08-04T22:30:32.529Z,17.55
2018-08-04T22:33:03.424Z,15.30
2018-08-04T22:35:34.111Z,16.90
2018-08-04T22:38:04.960Z,17.63
2018-08-04T22:40:35.660Z,16.90
2018-08-04T22:43:06.299Z,15.37
2018-08-04T22:46:15.243Z,14.50
2018-08-04T22:48:47.215Z,17.13
2018-08-04T22:51:23.460Z,17.23
2018-08-04T22:53:54.125Z,16.70
2018-08-04T22:56:24.905Z,15.23
2018-08-04T22:58:55.752Z,14.28
2018-08-04T23:01:26.429Z,16.25
2018-08-04T23:03:57.034Z,16.67
2018-08-04T23:06:27.764Z,16.07
2018-08-04T23:08:58.332Z,19.42
2018-08-04T23:11:29.018Z,16.35
2018-08-04T23:13:59.548Z,16.25
2018-08-04T23:16:30.067Z,17.80
2018-08-04T23:19:00.715Z,15.40
2018-08-04T23:21:31.384Z,15.95
2018-08-04T23:24:02.001Z,16.80
2018-08-04T23:26:32.559Z,17.47
2018-08-04T23:29:03.134Z,16.57
2018-08-04T23:31:33.714Z,15.80
2018-08-04T23:34:04.337Z,14.97
2018-08-04T23:36:35.195Z,13.53
2018-08-04T23:39:08.092Z,15.20
2018-08-04T23:41:38.587Z,18.92
2018-08-04T23:44:09.336Z,23.83
2018-08-04T23:46:39.982Z,14.58
2018-08-04T23:49:13.338Z,13.68
2018-08-04T23:51:44.103Z,13.70
2018-08-04T23:54:14.827Z,13.48
2018-08-04T23:56:45.443Z,13.13
2018-08-04T23:59:16.044Z,15.05
